Farmersville's Hourly Summary for Monday, April 17, 2017
Hour Temp
(f)
RH
(%)
Solar Rad.
(MJ/m2)
Rainfall
(in)
Wind
(mph)
4/17/2017 12:00 AM 68 86 0 0 0.1
4/17/2017 1:00 AM 68 90 0 0 0.5
4/17/2017 2:00 AM 69 92 0 0 0.77
4/17/2017 3:00 AM 69 95 0 0 0.56
4/17/2017 4:00 AM 69 100 0 0 0.77
4/17/2017 5:00 AM 68 100 0 0 1.4
4/17/2017 6:00 AM 68 100 0 0 1.73
4/17/2017 7:00 AM 67 100 0 0.01 1.22
4/17/2017 8:00 AM 67 100 0.07 0 1.98
4/17/2017 9:00 AM 67 100 0.23 0 1.85
4/17/2017 10:00 AM 69 100 0.61 0 1.68
4/17/2017 11:00 AM 68 99 0.19 0.01 2.09
4/17/2017 12:00 PM 65 100 1.53 0.01 5.94
4/17/2017 1:00 PM 68 75 1.94 0 5.76
4/17/2017 2:00 PM 67 76 0.88 0.01 4.49
4/17/2017 3:00 PM 66 80 0.28 0.05 0.76
4/17/2017 4:00 PM 64 100 0.12 0.05 0.56
4/17/2017 5:00 PM 63 99 0.11 0.08 1.95
4/17/2017 6:00 PM 63 99 0.17 0.02 4.74
4/17/2017 7:00 PM 63 94 0.08 0.02 2.82
4/17/2017 8:00 PM 62 97 0.02 0 2.73
4/17/2017 9:00 PM 62 99 0 0 0.21
4/17/2017 10:00 PM 62 99 0 0.01 0
4/17/2017 11:00 PM 62 99 0 0 0.17
Data Summary 66 94 6.23 0.27 1.87